createdAt,value
2022-12-11T00:01:17.611Z,7.20
2022-12-11T00:03:48.153Z,7.60
2022-12-11T00:06:20.123Z,8.20
2022-12-11T00:08:53.212Z,8.30
2022-12-11T00:11:23.178Z,13.10
2022-12-11T00:13:51.421Z,8.10
2022-12-11T00:16:25.317Z,8.40
2022-12-11T00:18:55.717Z,7.20
2022-12-11T00:21:23.900Z,6.10
2022-12-11T00:23:52.325Z,7.20
2022-12-11T00:26:21.037Z,6.40
2022-12-11T00:28:54.349Z,5.70
2022-12-11T00:31:23.815Z,8.20
2022-12-11T00:33:52.330Z,6.70
2022-12-11T00:36:24.458Z,8.70
2022-12-11T00:38:53.975Z,9.10
2022-12-11T00:41:22.857Z,6.60
2022-12-11T00:43:51.284Z,7.50
2022-12-11T00:46:19.756Z,6.30
2022-12-11T00:48:50.066Z,5.60
2022-12-11T00:51:18.364Z,9.60
2022-12-11T00:53:46.857Z,5.40
2022-12-11T00:56:21.009Z,5.80
2022-12-11T00:58:49.985Z,7.00
2022-12-11T01:01:21.423Z,8.50
2022-12-11T01:03:50.222Z,6.00
2022-12-11T01:06:22.102Z,5.20
2022-12-11T01:09:13.523Z,4.30
2022-12-11T01:11:49.342Z,7.90
2022-12-11T01:14:18.146Z,8.00
2022-12-11T01:16:46.577Z,8.50
2022-12-11T01:19:15.803Z,6.20
2022-12-11T01:21:44.189Z,5.50
2022-12-11T01:24:12.447Z,5.20
2022-12-11T01:26:40.683Z,6.80
2022-12-11T01:29:08.857Z,7.60
2022-12-11T01:31:37.975Z,6.00
2022-12-11T01:34:06.236Z,5.20
2022-12-11T01:36:34.501Z,5.10
2022-12-11T01:39:02.738Z,4.60
2022-12-11T01:41:31.025Z,5.70
2022-12-11T01:44:19.502Z,9.10
2022-12-11T01:46:48.109Z,3.50
2022-12-11T01:49:19.098Z,6.60
2022-12-11T01:51:53.218Z,6.00
2022-12-11T01:54:24.276Z,7.00
2022-12-11T01:56:56.333Z,8.90
2022-12-11T01:59:29.153Z,8.60
2022-12-11T02:02:03.513Z,5.70
2022-12-11T02:04:35.498Z,5.40
2022-12-11T02:07:04.550Z,7.00
2022-12-11T02:09:35.580Z,6.20
2022-12-11T02:12:26.909Z,6.30
2022-12-11T02:15:32.707Z,6.20
2022-12-11T02:18:30.206Z,7.70
2022-12-11T02:21:01.356Z,8.20
2022-12-11T02:24:17.216Z,7.10
2022-12-11T02:27:01.864Z,8.40
2022-12-11T02:29:39.732Z,7.50
2022-12-11T02:32:23.713Z,6.40
2022-12-11T02:35:15.422Z,8.60
2022-12-11T02:37:47.999Z,8.80
2022-12-11T02:40:21.820Z,6.90
2022-12-11T02:42:51.640Z,9.50
2022-12-11T02:45:23.039Z,6.20
2022-12-11T02:47:52.774Z,6.80
2022-12-11T02:50:23.923Z,9.10
2022-12-11T02:52:55.997Z,7.60
2022-12-11T02:55:26.373Z,10.20
2022-12-11T02:58:06.562Z,9.40
2022-12-11T03:00:36.780Z,7.80
2022-12-11T03:03:05.517Z,11.00
2022-12-11T03:05:33.823Z,10.10
2022-12-11T03:08:02.584Z,10.80
2022-12-11T03:10:31.106Z,5.70
2022-12-11T03:13:00.549Z,7.60
2022-12-11T03:15:55.040Z,6.70
2022-12-11T03:18:46.832Z,7.80
2022-12-11T03:21:27.297Z,8.70
2022-12-11T03:24:10.119Z,10.30
2022-12-11T03:26:43.837Z,8.70
2022-12-11T03:29:21.314Z,7.50
2022-12-11T03:31:59.722Z,9.40
2022-12-11T03:34:32.979Z,10.30
2022-12-11T03:37:03.485Z,9.90
2022-12-11T03:39:36.433Z,5.60
2022-12-11T03:42:08.395Z,10.20
2022-12-11T03:44:38.020Z,8.00
2022-12-11T03:47:09.669Z,12.30
2022-12-11T03:49:42.257Z,8.20
2022-12-11T03:52:12.894Z,8.10
2022-12-11T03:54:44.404Z,6.90
2022-12-11T03:57:16.848Z,10.90
2022-12-11T03:59:45.292Z,7.80
2022-12-11T04:02:13.560Z,7.90
2022-12-11T04:04:42.672Z,10.40
2022-12-11T04:07:10.998Z,8.80
2022-12-11T04:09:39.285Z,7.90
2022-12-11T04:12:07.621Z,8.10
2022-12-11T04:14:54.627Z,7.50
2022-12-11T04:17:41.373Z,7.60
2022-12-11T04:20:29.893Z,6.90
2022-12-11T04:23:16.710Z,6.80
2022-12-11T04:25:45.223Z,10.80
2022-12-11T04:28:13.515Z,9.60
2022-12-11T04:30:41.981Z,7.30
2022-12-11T04:33:10.296Z,9.90
2022-12-11T04:35:38.529Z,8.80
2022-12-11T04:38:06.775Z,8.90
2022-12-11T04:40:35.043Z,8.10
2022-12-11T04:43:03.588Z,8.50
2022-12-11T04:45:31.838Z,8.20
2022-12-11T04:48:00.101Z,9.40
2022-12-11T04:50:28.431Z,8.40
2022-12-11T04:52:57.461Z,7.30
2022-12-11T04:55:25.809Z,7.30
2022-12-11T04:57:54.132Z,7.20
2022-12-11T05:00:22.884Z,8.40
2022-12-11T05:02:51.196Z,8.80
2022-12-11T05:05:19.646Z,10.20
2022-12-11T05:07:47.984Z,8.30
2022-12-11T05:10:16.328Z,8.50
2022-12-11T05:12:44.560Z,8.80
2022-12-11T05:15:12.959Z,8.10
2022-12-11T05:17:41.450Z,7.30
2022-12-11T05:20:10.730Z,7.00
2022-12-11T05:22:39.366Z,7.10
2022-12-11T05:25:08.206Z,8.50
2022-12-11T05:27:36.531Z,7.10
2022-12-11T05:30:06.595Z,9.80
2022-12-11T05:32:35.281Z,8.10
2022-12-11T05:35:03.937Z,7.80
2022-12-11T05:37:33.548Z,8.30
2022-12-11T05:40:02.137Z,7.50
2022-12-11T05:42:30.420Z,9.30
2022-12-11T05:44:58.720Z,9.90
2022-12-11T05:47:26.987Z,8.10
2022-12-11T05:49:55.189Z,7.60
2022-12-11T05:52:23.496Z,6.80
2022-12-11T05:54:51.861Z,6.30
2022-12-11T05:57:20.106Z,6.20
2022-12-11T05:59:48.279Z,6.60
2022-12-11T06:02:16.648Z,7.40
2022-12-11T06:04:44.992Z,7.40
2022-12-11T06:07:13.692Z,6.00
2022-12-11T06:09:41.988Z,7.50
2022-12-11T06:12:10.289Z,6.30
2022-12-11T06:14:38.591Z,7.50
2022-12-11T06:17:07.614Z,5.10
2022-12-11T06:19:37.192Z,7.60
2022-12-11T06:22:05.470Z,8.90
2022-12-11T06:24:33.752Z,5.90
2022-12-11T06:27:02.010Z,2.50
2022-12-11T06:29:30.246Z,2.70
2022-12-11T06:31:58.593Z,1.70
2022-12-11T06:34:27.001Z,1.40
2022-12-11T06:36:55.233Z,1.60
2022-12-11T06:39:23.526Z,0.90
2022-12-11T06:41:58.134Z,0.80
2022-12-11T06:45:38.206Z,1.10
2022-12-11T06:48:23.210Z,1.30
2022-12-11T06:50:51.495Z,3.40
2022-12-11T06:53:19.720Z,0.30
2022-12-11T06:55:47.974Z,0.40
2022-12-11T06:58:17.960Z,0.30
2022-12-11T07:00:46.243Z,0.90
2022-12-11T07:03:16.712Z,0.30
2022-12-11T07:05:44.973Z,0.40
2022-12-11T07:08:13.235Z,0.60
2022-12-11T07:10:43.807Z,1.20
2022-12-11T07:13:12.106Z,0.50
2022-12-11T07:15:40.711Z,0.30
2022-12-11T07:18:11.599Z,0.30
2022-12-11T07:20:40.098Z,0.40
2022-12-11T07:23:09.232Z,0.20
2022-12-11T07:25:38.192Z,0.30
2022-12-11T07:28:06.527Z,0.30
2022-12-11T07:30:34.829Z,0.40
2022-12-11T07:33:03.261Z,0.60
2022-12-11T07:35:31.654Z,0.30
2022-12-11T07:37:59.930Z,1.30
2022-12-11T07:40:28.351Z,0.90
2022-12-11T07:42:56.793Z,0.50
2022-12-11T07:45:26.498Z,0.30
2022-12-11T07:47:54.756Z,0.80
2022-12-11T07:50:23.111Z,0.50
2022-12-11T07:52:51.376Z,0.40
2022-12-11T07:55:19.663Z,0.50
2022-12-11T07:57:47.925Z,0.70
2022-12-11T08:00:17.014Z,1.00
2022-12-11T08:02:45.279Z,0.70
2022-12-11T08:05:13.835Z,4.90
2022-12-11T08:07:42.354Z,6.00
2022-12-11T08:10:10.625Z,1.90
2022-12-11T08:12:38.891Z,9.50
2022-12-11T08:15:07.743Z,7.00
2022-12-11T08:17:39.969Z,12.50
2022-12-11T08:20:09.081Z,1.90
2022-12-11T08:22:37.357Z,3.30
2022-12-11T08:25:06.156Z,1.60
2022-12-11T08:27:34.370Z,0.70
2022-12-11T08:30:02.891Z,3.40
2022-12-11T08:32:31.170Z,1.10
2022-12-11T08:34:59.444Z,6.00
2022-12-11T08:37:28.114Z,0.70
2022-12-11T08:39:56.390Z,2.50
2022-12-11T08:42:24.588Z,2.00
2022-12-11T08:44:52.780Z,1.00
2022-12-11T08:47:21.528Z,2.10
2022-12-11T08:49:49.728Z,1.30
2022-12-11T08:52:18.016Z,3.20
2022-12-11T08:54:46.189Z,0.80
2022-12-11T08:57:14.457Z,0.90
2022-12-11T08:59:42.739Z,0.70
2022-12-11T09:02:13.534Z,0.90
2022-12-11T09:04:42.046Z,0.70
2022-12-11T09:07:10.666Z,0.90
2022-12-11T09:09:39.011Z,1.60
2022-12-11T09:12:07.652Z,1.20
2022-12-11T09:14:35.925Z,1.90
2022-12-11T09:17:05.618Z,2.40
2022-12-11T09:19:33.901Z,8.40
2022-12-11T09:22:02.177Z,37.70
2022-12-11T09:24:30.435Z,6.00
2022-12-11T09:26:58.737Z,4.70
2022-12-11T09:29:26.958Z,3.60
2022-12-11T09:31:57.108Z,4.30
2022-12-11T09:34:29.234Z,4.90
2022-12-11T09:36:58.373Z,0.90
2022-12-11T09:39:26.693Z,1.60
2022-12-11T09:42:20.955Z,3.40
2022-12-11T09:44:53.589Z,6.20
2022-12-11T09:47:36.067Z,8.90
2022-12-11T09:50:17.741Z,10.00
2022-12-11T09:53:00.191Z,10.80
2022-12-11T09:55:55.250Z,1.30
2022-12-11T09:58:50.769Z,0.80
2022-12-11T10:01:30.132Z,4.20
2022-12-11T10:04:28.721Z,0.80
2022-12-11T10:07:02.964Z,5.00
2022-12-11T10:09:57.347Z,4.60
2022-12-11T10:12:46.625Z,2.40
2022-12-11T10:15:43.228Z,2.30
2022-12-11T10:18:16.336Z,3.20
2022-12-11T10:20:45.541Z,4.90
2022-12-11T10:23:40.589Z,6.30
2022-12-11T10:26:16.866Z,5.40
2022-12-11T10:28:45.229Z,3.00
2022-12-11T10:31:40.761Z,1.90
2022-12-11T10:34:15.147Z,18.40
2022-12-11T10:36:44.764Z,50.20
2022-12-11T10:39:16.049Z,16.40
2022-12-11T10:41:46.952Z,5.00
2022-12-11T10:47:13.948Z,2.10
2022-12-11T10:50:00.562Z,1.10
2022-12-11T10:52:34.491Z,1.20
2022-12-11T10:55:07.031Z,3.10
2022-12-11T10:57:37.315Z,1.90
2022-12-11T11:00:26.638Z,1.50
2022-12-11T11:02:55.598Z,1.50
2022-12-11T11:05:36.105Z,2.40
2022-12-11T11:08:20.229Z,2.10
2022-12-11T11:10:57.591Z,1.30
2022-12-11T11:13:29.125Z,1.50
2022-12-11T11:16:04.608Z,0.70
2022-12-11T11:18:34.360Z,1.20
2022-12-11T11:21:03.431Z,3.20
2022-12-11T11:23:31.857Z,2.10
2022-12-11T11:26:02.725Z,2.20
2022-12-11T11:31:15.834Z,2.60
2022-12-11T11:33:54.157Z,5.10
2022-12-11T11:36:28.125Z,2.90
2022-12-11T11:39:29.812Z,1.80
2022-12-11T11:42:21.300Z,2.40
2022-12-11T11:45:10.347Z,1.70
2022-12-11T11:47:51.453Z,1.70
2022-12-11T11:50:24.963Z,1.50
2022-12-11T11:53:04.125Z,1.10
2022-12-11T11:55:39.852Z,1.20
2022-12-11T11:58:15.902Z,2.20
2022-12-11T12:00:44.233Z,1.10
2022-12-11T12:03:18.496Z,0.90
2022-12-11T12:05:58.453Z,2.30
2022-12-11T12:08:32.700Z,1.30
2022-12-11T12:11:00.953Z,1.30
2022-12-11T12:13:58.308Z,1.90
2022-12-11T12:16:56.229Z,3.70
2022-12-11T12:19:33.412Z,1.80
2022-12-11T12:22:16.853Z,2.30
2022-12-11T12:24:53.879Z,2.50
2022-12-11T12:27:51.740Z,6.10
2022-12-11T12:30:23.037Z,2.20
2022-12-11T12:33:13.109Z,3.60
2022-12-11T12:36:18.141Z,2.00
2022-12-11T12:39:01.321Z,1.70
2022-12-11T12:41:47.484Z,2.40
2022-12-11T12:44:19.279Z,1.40
2022-12-11T12:47:00.341Z,2.50
2022-12-11T12:52:02.888Z,2.40
2022-12-11T12:54:33.514Z,1.40
2022-12-11T12:57:04.326Z,2.80
2022-12-11T13:02:03.200Z,1.70
2022-12-11T13:04:56.317Z,2.90
2022-12-11T13:07:32.871Z,2.80
2022-12-11T13:10:28.428Z,2.40
2022-12-11T13:12:57.423Z,1.80
2022-12-11T13:15:44.027Z,2.30
2022-12-11T13:18:36.200Z,3.20
2022-12-11T13:21:32.479Z,4.20
2022-12-11T13:24:13.117Z,2.80
2022-12-11T13:26:44.037Z,3.30
2022-12-11T13:32:22.578Z,2.40
2022-12-11T13:34:55.662Z,2.80
2022-12-11T13:37:34.916Z,3.00
2022-12-11T13:40:08.503Z,2.00
2022-12-11T13:42:50.376Z,2.90
2022-12-11T13:45:40.935Z,1.70
2022-12-11T13:48:38.094Z,5.40
2022-12-11T13:51:07.368Z,2.40
2022-12-11T13:53:35.713Z,2.90
2022-12-11T13:56:06.736Z,2.80
2022-12-11T13:58:38.222Z,1.90
2022-12-11T14:01:11.452Z,2.60
2022-12-11T14:03:56.618Z,2.40
2022-12-11T14:06:27.698Z,1.50
2022-12-11T14:08:59.523Z,3.00
2022-12-11T14:11:56.471Z,3.50
2022-12-11T14:14:49.999Z,2.30
2022-12-11T14:17:27.368Z,1.50
2022-12-11T14:19:58.182Z,2.10
2022-12-11T14:22:28.982Z,2.10
2022-12-11T14:27:28.186Z,3.10
2022-12-11T14:29:56.916Z,2.40
2022-12-11T14:32:35.784Z,3.60
2022-12-11T14:35:08.637Z,2.60
2022-12-11T14:37:37.450Z,5.90
2022-12-11T14:40:08.469Z,4.80
2022-12-11T14:45:25.318Z,4.40
2022-12-11T14:47:55.272Z,2.80
2022-12-11T14:50:35.215Z,4.10
2022-12-11T14:53:29.447Z,3.00
2022-12-11T14:56:02.594Z,3.00
2022-12-11T14:58:33.280Z,2.60
2022-12-11T15:01:22.479Z,2.60
2022-12-11T15:04:01.637Z,2.80
2022-12-11T15:06:35.778Z,3.80
2022-12-11T15:09:37.554Z,3.50
2022-12-11T15:12:15.741Z,4.70
2022-12-11T15:15:04.175Z,4.30
2022-12-11T15:17:34.734Z,2.90
2022-12-11T15:20:07.648Z,3.30
2022-12-11T15:22:39.318Z,5.00
2022-12-11T15:25:21.837Z,3.00
2022-12-11T15:27:59.775Z,4.40
2022-12-11T15:30:31.356Z,2.60
2022-12-11T15:33:11.729Z,3.70
2022-12-11T15:35:52.402Z,2.10
2022-12-11T15:38:47.627Z,2.90
2022-12-11T15:41:26.056Z,2.20
2022-12-11T15:43:58.835Z,2.30
2022-12-11T15:46:28.007Z,4.40
2022-12-11T15:48:57.735Z,2.70
2022-12-11T15:51:27.768Z,3.50
2022-12-11T15:53:56.045Z,2.30
2022-12-11T15:56:26.637Z,3.40
2022-12-11T15:59:01.325Z,3.90
2022-12-11T16:01:29.574Z,3.90
2022-12-11T16:04:01.801Z,3.40
2022-12-11T16:06:33.564Z,3.30
2022-12-11T16:09:04.197Z,3.70
2022-12-11T16:11:32.492Z,3.80
2022-12-11T16:14:04.374Z,4.10
2022-12-11T16:16:32.841Z,3.50
2022-12-11T16:19:01.091Z,4.70
2022-12-11T16:21:29.475Z,5.00
2022-12-11T16:23:57.766Z,2.90
2022-12-11T16:26:26.126Z,3.80
2022-12-11T16:29:01.795Z,4.50
2022-12-11T16:31:32.577Z,3.30
2022-12-11T16:34:03.195Z,3.60
2022-12-11T16:36:31.576Z,3.90
2022-12-11T16:39:01.665Z,3.40
2022-12-11T16:41:30.125Z,3.80
2022-12-11T16:44:01.220Z,4.70
2022-12-11T16:46:29.646Z,4.40
2022-12-11T16:48:57.969Z,3.20
2022-12-11T16:51:26.272Z,3.60
2022-12-11T16:53:56.898Z,3.40
2022-12-11T16:56:26.722Z,6.30
2022-12-11T16:58:57.512Z,3.50
2022-12-11T17:01:25.812Z,4.00
2022-12-11T17:03:54.924Z,3.40
2022-12-11T17:06:23.700Z,4.30
2022-12-11T17:08:53.583Z,3.80
2022-12-11T17:11:26.434Z,3.90
2022-12-11T17:13:56.333Z,8.30
2022-12-11T17:16:26.609Z,3.60
2022-12-11T17:18:58.447Z,3.60
2022-12-11T17:21:26.949Z,3.90
2022-12-11T17:23:55.330Z,4.80
2022-12-11T17:26:25.404Z,3.60
2022-12-11T17:28:53.838Z,4.80
2022-12-11T17:31:22.175Z,4.80
2022-12-11T17:33:50.620Z,5.30
2022-12-11T17:36:21.120Z,7.80
2022-12-11T17:38:50.181Z,5.40
2022-12-11T17:41:21.137Z,6.30
2022-12-11T17:46:21.756Z,4.80
2022-12-11T17:48:50.231Z,7.40
2022-12-11T17:51:24.745Z,6.40
2022-12-11T17:53:56.171Z,6.60
2022-12-11T17:56:26.179Z,4.80
2022-12-11T17:58:54.585Z,3.60
2022-12-11T18:01:22.816Z,4.20
2022-12-11T18:03:51.219Z,3.90
2022-12-11T18:06:19.580Z,3.70
2022-12-11T18:08:47.978Z,3.90
2022-12-11T18:11:18.635Z,4.50
2022-12-11T18:13:48.973Z,5.60
2022-12-11T18:16:21.224Z,7.00
2022-12-11T18:18:50.566Z,5.30
2022-12-11T18:21:25.404Z,4.70
2022-12-11T18:23:54.195Z,4.60
2022-12-11T18:26:25.726Z,4.70
2022-12-11T18:28:54.764Z,3.60
2022-12-11T18:31:23.642Z,5.70
2022-12-11T18:33:52.944Z,6.70
2022-12-11T18:36:22.168Z,7.70
2022-12-11T18:38:50.500Z,5.90
2022-12-11T18:41:20.169Z,5.10
2022-12-11T18:43:48.579Z,6.60
2022-12-11T18:46:20.174Z,5.90
2022-12-11T18:51:23.823Z,6.30
2022-12-11T18:53:52.628Z,4.90
2022-12-11T18:56:21.545Z,5.80
2022-12-11T18:58:51.879Z,6.10
2022-12-11T19:01:24.446Z,5.50
2022-12-11T19:04:05.568Z,6.30
2022-12-11T19:06:37.339Z,5.80
2022-12-11T19:09:07.854Z,5.00
2022-12-11T19:11:39.714Z,5.90
2022-12-11T19:14:08.673Z,5.30
2022-12-11T19:16:40.728Z,6.70
2022-12-11T19:19:14.482Z,6.70
2022-12-11T19:21:43.608Z,4.60
2022-12-11T19:24:18.294Z,5.40
2022-12-11T19:26:46.661Z,6.30
2022-12-11T19:29:21.667Z,5.80
2022-12-11T19:31:50.052Z,4.70
2022-12-11T19:34:18.605Z,6.80
2022-12-11T19:36:47.683Z,8.00
2022-12-11T19:39:16.262Z,6.30
2022-12-11T19:41:44.533Z,6.40
2022-12-11T19:44:12.872Z,5.80
2022-12-11T19:46:41.607Z,5.20
2022-12-11T19:49:11.968Z,6.30
2022-12-11T19:51:42.100Z,4.60
2022-12-11T19:54:14.627Z,5.60
2022-12-11T19:56:43.616Z,4.90
2022-12-11T19:59:16.672Z,7.10
2022-12-11T20:01:48.329Z,5.60
2022-12-11T20:04:17.972Z,8.50
2022-12-11T20:06:47.543Z,7.90
2022-12-11T20:09:16.428Z,5.60
2022-12-11T20:11:45.676Z,6.40
2022-12-11T20:14:20.057Z,5.80
2022-12-11T20:19:39.429Z,5.40
2022-12-11T20:22:07.786Z,5.40
2022-12-11T20:24:36.458Z,5.90
2022-12-11T20:27:05.087Z,6.50
2022-12-11T20:29:33.393Z,6.00
2022-12-11T20:32:01.741Z,5.30
2022-12-11T20:34:29.915Z,7.20
2022-12-11T20:37:00.323Z,6.10
2022-12-11T20:39:29.257Z,6.70
2022-12-11T20:41:57.975Z,5.50
2022-12-11T20:44:26.381Z,6.80
2022-12-11T20:46:55.324Z,7.30
2022-12-11T20:49:23.706Z,5.40
2022-12-11T20:51:52.076Z,5.70
2022-12-11T20:54:20.430Z,6.90
2022-12-11T20:56:48.792Z,8.50
2022-12-11T20:59:17.684Z,7.70
2022-12-11T21:01:46.233Z,6.90
2022-12-11T21:04:14.571Z,7.10
2022-12-11T21:06:42.948Z,13.30
2022-12-11T21:09:14.404Z,7.40
2022-12-11T21:11:42.687Z,7.90
2022-12-11T21:14:11.013Z,7.40
2022-12-11T21:16:39.552Z,6.90
2022-12-11T21:19:10.211Z,9.00
2022-12-11T21:21:43.107Z,5.70
2022-12-11T21:24:18.769Z,7.90
2022-12-11T21:26:48.198Z,8.50
2022-12-11T21:29:17.220Z,7.50
2022-12-11T21:31:45.547Z,7.50
2022-12-11T21:34:14.227Z,8.00
2022-12-11T21:36:42.509Z,12.90
2022-12-11T21:39:12.339Z,9.00
2022-12-11T21:41:41.466Z,7.60
2022-12-11T21:46:59.665Z,8.30
2022-12-11T21:49:27.962Z,8.10
2022-12-11T21:51:56.521Z,6.90
2022-12-11T21:54:24.837Z,8.70
2022-12-11T21:56:58.844Z,10.10
2022-12-11T21:59:28.817Z,8.40
2022-12-11T22:01:57.125Z,10.00
2022-12-11T22:04:25.414Z,9.30
2022-12-11T22:06:53.887Z,9.70
2022-12-11T22:09:22.178Z,9.20
2022-12-11T22:11:55.041Z,9.80
2022-12-11T22:14:26.943Z,7.40
2022-12-11T22:16:55.258Z,7.10
2022-12-11T22:19:27.745Z,9.20
2022-12-11T22:21:58.987Z,8.50
2022-12-11T22:24:27.251Z,7.80
2022-12-11T22:26:55.535Z,8.00
2022-12-11T22:29:23.916Z,6.00
2022-12-11T22:31:53.033Z,9.00
2022-12-11T22:34:22.125Z,9.00
2022-12-11T22:36:50.479Z,9.10
2022-12-11T22:39:18.855Z,8.90
2022-12-11T22:41:47.186Z,8.80
2022-12-11T22:44:18.439Z,8.90
2022-12-11T22:46:49.959Z,8.50
2022-12-11T22:49:20.023Z,9.10
2022-12-11T22:51:49.155Z,7.90
2022-12-11T22:54:17.531Z,9.30
2022-12-11T22:56:45.810Z,8.50
2022-12-11T22:59:14.039Z,11.00
2022-12-11T23:01:42.405Z,8.80
2022-12-11T23:04:10.698Z,9.10
2022-12-11T23:06:41.553Z,8.20
2022-12-11T23:09:11.292Z,8.60
2022-12-11T23:11:40.120Z,7.90
2022-12-11T23:14:13.518Z,7.80
2022-12-11T23:16:42.091Z,8.70
2022-12-11T23:19:11.718Z,7.60
2022-12-11T23:21:40.559Z,9.80
2022-12-11T23:24:09.412Z,9.20
2022-12-11T23:26:38.600Z,8.20
2022-12-11T23:29:06.949Z,7.20
2022-12-11T23:31:35.412Z,6.70
2022-12-11T23:34:03.644Z,9.50
2022-12-11T23:36:31.966Z,8.70
2022-12-11T23:39:00.237Z,7.70
2022-12-11T23:41:28.452Z,9.80
2022-12-11T23:43:56.677Z,10.80
2022-12-11T23:46:25.618Z,9.20
2022-12-11T23:48:54.661Z,9.80
2022-12-11T23:51:25.091Z,11.30
2022-12-11T23:53:53.538Z,7.50
2022-12-11T23:56:25.015Z,10.20
2022-12-11T23:58:54.151Z,9.50
